sensor_id;sensor_type;location;lat;lon;timestamp;temperature;humidity
17992;DHT22;9121;50.926;5.340;2023-12-04T00:00:09;3.30;1.00
17992;DHT22;9121;50.926;5.340;2023-12-04T00:02:36;3.30;1.00
17992;DHT22;9121;50.926;5.340;2023-12-04T00:05:04;3.30;1.00
17992;DHT22;9121;50.926;5.340;2023-12-04T00:07:31;3.30;1.00
17992;DHT22;9121;50.926;5.340;2023-12-04T00:09:58;3.20;1.00
17992;DHT22;9121;50.926;5.340;2023-12-04T00:12:25;3.30;1.00
17992;DHT22;9121;50.926;5.340;2023-12-04T00:14:54;3.20;1.00
17992;DHT22;9121;50.926;5.340;2023-12-04T00:17:20;3.20;1.00
17992;DHT22;9121;50.926;5.340;2023-12-04T00:19:48;3.20;1.00
17992;DHT22;9121;50.926;5.340;2023-12-04T00:22:14;3.30;1.00
17992;DHT22;9121;50.926;5.340;2023-12-04T00:24:41;3.30;1.00
17992;DHT22;9121;50.926;5.340;2023-12-04T00:27:08;3.30;1.00
17992;DHT22;9121;50.926;5.340;2023-12-04T00:29:35;3.30;1.00
17992;DHT22;9121;50.926;5.340;2023-12-04T00:32:04;3.30;1.00
17992;DHT22;9121;50.926;5.340;2023-12-04T00:34:32;3.30;1.00
17992;DHT22;9121;50.926;5.340;2023-12-04T00:36:59;3.30;99.90
17992;DHT22;9121;50.926;5.340;2023-12-04T00:39:26;3.30;99.90
17992;DHT22;9121;50.926;5.340;2023-12-04T00:41:53;3.20;99.90
17992;DHT22;9121;50.926;5.340;2023-12-04T00:44:19;3.20;99.90
17992;DHT22;9121;50.926;5.340;2023-12-04T00:46:46;3.20;99.90
17992;DHT22;9121;50.926;5.340;2023-12-04T00:49:15;3.30;99.90
17992;DHT22;9121;50.926;5.340;2023-12-04T00:51:42;3.30;99.90
17992;DHT22;9121;50.926;5.340;2023-12-04T00:54:09;3.30;99.90
17992;DHT22;9121;50.926;5.340;2023-12-04T00:56:38;3.30;99.90
17992;DHT22;9121;50.926;5.340;2023-12-04T00:59:05;3.30;99.90
17992;DHT22;9121;50.926;5.340;2023-12-04T01:01:33;3.30;99.90
17992;DHT22;9121;50.926;5.340;2023-12-04T01:03:59;3.20;99.90
17992;DHT22;9121;50.926;5.340;2023-12-04T01:06:28;3.30;99.90
17992;DHT22;9121;50.926;5.340;2023-12-04T01:08:55;3.30;99.90
17992;DHT22;9121;50.926;5.340;2023-12-04T01:11:23;3.30;99.90
17992;DHT22;9121;50.926;5.340;2023-12-04T01:13:50;3.20;99.90
17992;DHT22;9121;50.926;5.340;2023-12-04T01:16:17;3.30;99.90
17992;DHT22;9121;50.926;5.340;2023-12-04T01:18:44;3.30;99.90
17992;DHT22;9121;50.926;5.340;2023-12-04T01:21:11;3.30;99.90
17992;DHT22;9121;50.926;5.340;2023-12-04T01:23:39;3.30;99.90
17992;DHT22;9121;50.926;5.340;2023-12-04T01:26:06;3.20;99.90
17992;DHT22;9121;50.926;5.340;2023-12-04T01:28:33;3.20;99.90
17992;DHT22;9121;50.926;5.340;2023-12-04T01:31:00;3.20;99.90
17992;DHT22;9121;50.926;5.340;2023-12-04T01:33:27;3.20;99.90
17992;DHT22;9121;50.926;5.340;2023-12-04T01:35:54;3.20;99.90
17992;DHT22;9121;50.926;5.340;2023-12-04T01:38:21;3.30;99.90
17992;DHT22;9121;50.926;5.340;2023-12-04T01:40:49;3.20;99.90
17992;DHT22;9121;50.926;5.340;2023-12-04T01:43:16;3.20;99.90
17992;DHT22;9121;50.926;5.340;2023-12-04T01:45:44;3.20;99.90
17992;DHT22;9121;50.926;5.340;2023-12-04T01:48:14;3.20;99.90
17992;DHT22;9121;50.926;5.340;2023-12-04T01:50:41;3.30;99.90
17992;DHT22;9121;50.926;5.340;2023-12-04T01:53:08;3.20;99.90
17992;DHT22;9121;50.926;5.340;2023-12-04T01:55:37;3.10;1.00
17992;DHT22;9121;50.926;5.340;2023-12-04T01:58:06;2.90;1.00
17992;DHT22;9121;50.926;5.340;2023-12-04T02:00:33;2.90;1.00
17992;DHT22;9121;50.926;5.340;2023-12-04T02:03:00;2.90;1.00
17992;DHT22;9121;50.926;5.340;2023-12-04T02:05:27;2.90;1.00
17992;DHT22;9121;50.926;5.340;2023-12-04T02:07:55;3.00;99.90
17992;DHT22;9121;50.926;5.340;2023-12-04T02:10:22;3.00;1.00
17992;DHT22;9121;50.926;5.340;2023-12-04T02:12:49;3.00;99.90
17992;DHT22;9121;50.926;5.340;2023-12-04T02:15:18;3.10;99.90
17992;DHT22;9121;50.926;5.340;2023-12-04T02:17:45;3.10;99.90
17992;DHT22;9121;50.926;5.340;2023-12-04T02:20:13;3.20;99.90
17992;DHT22;9121;50.926;5.340;2023-12-04T02:22:40;3.10;99.90
17992;DHT22;9121;50.926;5.340;2023-12-04T02:25:09;3.20;99.90
17992;DHT22;9121;50.926;5.340;2023-12-04T02:27:39;3.20;99.90
17992;DHT22;9121;50.926;5.340;2023-12-04T02:30:10;3.20;99.90
17992;DHT22;9121;50.926;5.340;2023-12-04T02:32:44;3.20;99.90
17992;DHT22;9121;50.926;5.340;2023-12-04T02:35:13;3.20;99.90
17992;DHT22;9121;50.926;5.340;2023-12-04T02:37:41;3.20;99.90
17992;DHT22;9121;50.926;5.340;2023-12-04T02:40:11;3.20;99.90
17992;DHT22;9121;50.926;5.340;2023-12-04T02:42:38;3.10;99.90
17992;DHT22;9121;50.926;5.340;2023-12-04T02:45:06;3.20;99.90
17992;DHT22;9121;50.926;5.340;2023-12-04T02:47:33;3.20;99.90
17992;DHT22;9121;50.926;5.340;2023-12-04T02:50:00;3.20;99.90
17992;DHT22;9121;50.926;5.340;2023-12-04T02:52:27;3.20;99.90
17992;DHT22;9121;50.926;5.340;2023-12-04T02:54:54;3.20;99.90
17992;DHT22;9121;50.926;5.340;2023-12-04T02:57:22;3.20;99.90
17992;DHT22;9121;50.926;5.340;2023-12-04T02:59:49;3.20;99.90
17992;DHT22;9121;50.926;5.340;2023-12-04T03:02:16;3.20;99.90
17992;DHT22;9121;50.926;5.340;2023-12-04T03:04:43;3.20;99.90
17992;DHT22;9121;50.926;5.340;2023-12-04T03:07:10;3.20;99.90
17992;DHT22;9121;50.926;5.340;2023-12-04T03:09:37;3.20;99.90
17992;DHT22;9121;50.926;5.340;2023-12-04T03:12:05;3.20;99.90
17992;DHT22;9121;50.926;5.340;2023-12-04T03:14:33;3.20;99.90
17992;DHT22;9121;50.926;5.340;2023-12-04T03:17:00;3.20;99.90
17992;DHT22;9121;50.926;5.340;2023-12-04T03:19:27;3.20;99.90
17992;DHT22;9121;50.926;5.340;2023-12-04T03:21:54;3.20;99.90
17992;DHT22;9121;50.926;5.340;2023-12-04T03:24:21;3.20;99.90
17992;DHT22;9121;50.926;5.340;2023-12-04T03:26:47;3.20;99.90
17992;DHT22;9121;50.926;5.340;2023-12-04T03:29:14;3.30;99.90
17992;DHT22;9121;50.926;5.340;2023-12-04T03:31:43;3.30;99.90
17992;DHT22;9121;50.926;5.340;2023-12-04T03:34:10;3.30;99.90
17992;DHT22;9121;50.926;5.340;2023-12-04T03:36:36;3.30;99.90
17992;DHT22;9121;50.926;5.340;2023-12-04T03:39:03;3.20;99.90
17992;DHT22;9121;50.926;5.340;2023-12-04T03:41:30;3.20;99.90
17992;DHT22;9121;50.926;5.340;2023-12-04T03:43:57;3.10;99.90
17992;DHT22;9121;50.926;5.340;2023-12-04T03:46:24;3.10;99.90
17992;DHT22;9121;50.926;5.340;2023-12-04T03:48:52;3.10;99.90
17992;DHT22;9121;50.926;5.340;2023-12-04T03:51:19;3.10;99.90
17992;DHT22;9121;50.926;5.340;2023-12-04T03:53:46;3.10;99.90
17992;DHT22;9121;50.926;5.340;2023-12-04T03:56:13;3.10;99.90
17992;DHT22;9121;50.926;5.340;2023-12-04T03:58:40;3.10;99.90
17992;DHT22;9121;50.926;5.340;2023-12-04T04:01:07;3.10;99.90
17992;DHT22;9121;50.926;5.340;2023-12-04T04:03:34;3.20;99.90
17992;DHT22;9121;50.926;5.340;2023-12-04T04:06:02;3.10;99.90
17992;DHT22;9121;50.926;5.340;2023-12-04T04:08:29;3.10;99.90
17992;DHT22;9121;50.926;5.340;2023-12-04T04:10:56;3.10;99.90
17992;DHT22;9121;50.926;5.340;2023-12-04T04:13:23;3.10;99.90
17992;DHT22;9121;50.926;5.340;2023-12-04T04:15:51;3.10;99.90
17992;DHT22;9121;50.926;5.340;2023-12-04T04:18:18;3.10;99.90
17992;DHT22;9121;50.926;5.340;2023-12-04T04:20:44;3.00;99.90
17992;DHT22;9121;50.926;5.340;2023-12-04T04:23:13;3.00;99.90
17992;DHT22;9121;50.926;5.340;2023-12-04T04:25:40;3.00;99.90
17992;DHT22;9121;50.926;5.340;2023-12-04T04:28:07;2.90;99.90
17992;DHT22;9121;50.926;5.340;2023-12-04T04:30:33;2.90;99.90
17992;DHT22;9121;50.926;5.340;2023-12-04T04:33:00;2.80;99.90
17992;DHT22;9121;50.926;5.340;2023-12-04T04:35:30;2.80;1.00
17992;DHT22;9121;50.926;5.340;2023-12-04T04:37:57;2.80;1.00
17992;DHT22;9121;50.926;5.340;2023-12-04T04:40:25;2.80;99.90
17992;DHT22;9121;50.926;5.340;2023-12-04T04:42:52;2.80;99.90
17992;DHT22;9121;50.926;5.340;2023-12-04T04:45:19;2.80;99.90
17992;DHT22;9121;50.926;5.340;2023-12-04T04:47:46;2.90;99.90
17992;DHT22;9121;50.926;5.340;2023-12-04T04:50:13;2.90;99.90
17992;DHT22;9121;50.926;5.340;2023-12-04T04:52:40;2.90;99.90
17992;DHT22;9121;50.926;5.340;2023-12-04T04:55:07;2.90;99.90
17992;DHT22;9121;50.926;5.340;2023-12-04T04:57:36;2.90;99.90
17992;DHT22;9121;50.926;5.340;2023-12-04T05:00:03;2.90;99.90
17992;DHT22;9121;50.926;5.340;2023-12-04T05:02:31;3.00;99.90
17992;DHT22;9121;50.926;5.340;2023-12-04T05:04:57;3.10;99.90
17992;DHT22;9121;50.926;5.340;2023-12-04T05:07:24;3.10;99.90
17992;DHT22;9121;50.926;5.340;2023-12-04T05:09:51;3.10;99.90
17992;DHT22;9121;50.926;5.340;2023-12-04T05:12:18;3.10;99.90
17992;DHT22;9121;50.926;5.340;2023-12-04T05:14:46;3.10;99.90
17992;DHT22;9121;50.926;5.340;2023-12-04T05:17:13;3.20;99.90
17992;DHT22;9121;50.926;5.340;2023-12-04T05:19:40;3.20;99.90
17992;DHT22;9121;50.926;5.340;2023-12-04T05:22:08;3.20;99.90
17992;DHT22;9121;50.926;5.340;2023-12-04T05:24:35;3.30;99.90
17992;DHT22;9121;50.926;5.340;2023-12-04T05:27:02;3.30;81.60
17992;DHT22;9121;50.926;5.340;2023-12-04T05:29:29;3.20;96.30
17992;DHT22;9121;50.926;5.340;2023-12-04T05:31:57;3.20;90.10
17992;DHT22;9121;50.926;5.340;2023-12-04T05:34:24;3.20;88.90
17992;DHT22;9121;50.926;5.340;2023-12-04T05:36:51;3.30;96.90
17992;DHT22;9121;50.926;5.340;2023-12-04T05:39:18;3.20;97.40
17992;DHT22;9121;50.926;5.340;2023-12-04T05:41:45;3.30;73.20
17992;DHT22;9121;50.926;5.340;2023-12-04T05:44:12;3.30;52.50
17992;DHT22;9121;50.926;5.340;2023-12-04T05:46:39;3.30;90.80
17992;DHT22;9121;50.926;5.340;2023-12-04T05:49:07;3.30;44.30
17992;DHT22;9121;50.926;5.340;2023-12-04T05:51:35;3.30;40.80
17992;DHT22;9121;50.926;5.340;2023-12-04T05:54:02;3.30;1.00
17992;DHT22;9121;50.926;5.340;2023-12-04T05:56:29;3.30;23.10
17992;DHT22;9121;50.926;5.340;2023-12-04T05:58:56;3.30;34.80
17992;DHT22;9121;50.926;5.340;2023-12-04T06:01:23;3.30;48.00
17992;DHT22;9121;50.926;5.340;2023-12-04T06:03:50;3.30;23.50
17992;DHT22;9121;50.926;5.340;2023-12-04T06:06:18;3.30;65.20
17992;DHT22;9121;50.926;5.340;2023-12-04T06:08:45;3.40;43.10
17992;DHT22;9121;50.926;5.340;2023-12-04T06:11:12;3.30;53.10
17992;DHT22;9121;50.926;5.340;2023-12-04T06:13:39;3.30;95.10
17992;DHT22;9121;50.926;5.340;2023-12-04T06:16:07;3.20;93.70
17992;DHT22;9121;50.926;5.340;2023-12-04T06:18:34;3.20;72.60
17992;DHT22;9121;50.926;5.340;2023-12-04T06:21:01;3.10;60.80
17992;DHT22;9121;50.926;5.340;2023-12-04T06:23:30;3.20;99.90
17992;DHT22;9121;50.926;5.340;2023-12-04T06:25:57;3.30;58.80
17992;DHT22;9121;50.926;5.340;2023-12-04T06:28:25;3.30;58.30
17992;DHT22;9121;50.926;5.340;2023-12-04T06:30:53;3.50;68.10
17992;DHT22;9121;50.926;5.340;2023-12-04T06:33:20;3.50;90.50
17992;DHT22;9121;50.926;5.340;2023-12-04T06:35:48;3.60;58.50
17992;DHT22;9121;50.926;5.340;2023-12-04T06:38:16;3.60;34.30
17992;DHT22;9121;50.926;5.340;2023-12-04T06:40:45;3.60;1.00
17992;DHT22;9121;50.926;5.340;2023-12-04T06:43:13;3.60;11.80
17992;DHT22;9121;50.926;5.340;2023-12-04T06:45:42;3.70;9.20
17992;DHT22;9121;50.926;5.340;2023-12-04T06:48:11;3.70;1.00
17992;DHT22;9121;50.926;5.340;2023-12-04T06:50:39;3.70;1.00
17992;DHT22;9121;50.926;5.340;2023-12-04T06:53:06;3.70;1.00
17992;DHT22;9121;50.926;5.340;2023-12-04T06:55:33;3.70;16.70
17992;DHT22;9121;50.926;5.340;2023-12-04T06:58:02;3.80;51.10
17992;DHT22;9121;50.926;5.340;2023-12-04T07:00:28;3.90;45.00
17992;DHT22;9121;50.926;5.340;2023-12-04T07:02:55;3.90;1.00
17992;DHT22;9121;50.926;5.340;2023-12-04T07:05:22;4.00;1.00
17992;DHT22;9121;50.926;5.340;2023-12-04T07:07:49;4.00;1.00
17992;DHT22;9121;50.926;5.340;2023-12-04T07:10:16;4.10;1.00
17992;DHT22;9121;50.926;5.340;2023-12-04T07:12:44;4.10;1.00
17992;DHT22;9121;50.926;5.340;2023-12-04T07:15:12;4.20;1.00
17992;DHT22;9121;50.926;5.340;2023-12-04T07:17:40;4.20;1.00
17992;DHT22;9121;50.926;5.340;2023-12-04T07:20:07;4.20;1.00
17992;DHT22;9121;50.926;5.340;2023-12-04T07:22:37;4.20;1.00
17992;DHT22;9121;50.926;5.340;2023-12-04T07:25:04;4.20;1.00
17992;DHT22;9121;50.926;5.340;2023-12-04T07:27:32;4.10;1.00
17992;DHT22;9121;50.926;5.340;2023-12-04T07:29:59;4.10;1.00
17992;DHT22;9121;50.926;5.340;2023-12-04T07:32:27;4.10;1.00
17992;DHT22;9121;50.926;5.340;2023-12-04T07:34:54;4.20;1.00
17992;DHT22;9121;50.926;5.340;2023-12-04T07:37:21;4.20;1.00
17992;DHT22;9121;50.926;5.340;2023-12-04T07:39:48;4.20;1.00
17992;DHT22;9121;50.926;5.340;2023-12-04T07:42:15;4.20;1.00
17992;DHT22;9121;50.926;5.340;2023-12-04T07:44:42;4.30;1.00
17992;DHT22;9121;50.926;5.340;2023-12-04T07:47:09;4.20;1.00
17992;DHT22;9121;50.926;5.340;2023-12-04T07:49:38;4.20;1.00
17992;DHT22;9121;50.926;5.340;2023-12-04T07:52:05;4.20;1.00
17992;DHT22;9121;50.926;5.340;2023-12-04T07:54:32;4.20;1.00
17992;DHT22;9121;50.926;5.340;2023-12-04T07:56:59;4.30;1.00
17992;DHT22;9121;50.926;5.340;2023-12-04T07:59:26;4.30;1.00
17992;DHT22;9121;50.926;5.340;2023-12-04T08:01:53;4.40;1.00
17992;DHT22;9121;50.926;5.340;2023-12-04T08:04:20;4.30;1.00
17992;DHT22;9121;50.926;5.340;2023-12-04T08:06:48;4.40;1.00
17992;DHT22;9121;50.926;5.340;2023-12-04T08:09:15;4.30;1.00
17992;DHT22;9121;50.926;5.340;2023-12-04T08:11:42;4.40;1.00
17992;DHT22;9121;50.926;5.340;2023-12-04T08:14:09;4.30;1.00
17992;DHT22;9121;50.926;5.340;2023-12-04T08:16:36;4.30;1.00
17992;DHT22;9121;50.926;5.340;2023-12-04T08:19:03;4.30;1.00
17992;DHT22;9121;50.926;5.340;2023-12-04T08:21:30;4.20;1.00
17992;DHT22;9121;50.926;5.340;2023-12-04T08:23:59;4.20;1.00
17992;DHT22;9121;50.926;5.340;2023-12-04T08:26:26;4.30;1.00
17992;DHT22;9121;50.926;5.340;2023-12-04T08:28:53;4.40;1.00
17992;DHT22;9121;50.926;5.340;2023-12-04T08:31:20;4.40;1.00
17992;DHT22;9121;50.926;5.340;2023-12-04T08:33:47;4.40;1.00
17992;DHT22;9121;50.926;5.340;2023-12-04T08:36:14;4.50;1.00
17992;DHT22;9121;50.926;5.340;2023-12-04T08:38:41;4.40;1.00
17992;DHT22;9121;50.926;5.340;2023-12-04T08:41:10;4.50;1.00
17992;DHT22;9121;50.926;5.340;2023-12-04T08:43:37;4.40;1.00
17992;DHT22;9121;50.926;5.340;2023-12-04T08:46:04;4.50;1.00
17992;DHT22;9121;50.926;5.340;2023-12-04T08:48:31;4.50;1.00
17992;DHT22;9121;50.926;5.340;2023-12-04T08:50:58;4.60;1.00
17992;DHT22;9121;50.926;5.340;2023-12-04T08:53:25;4.60;1.00
17992;DHT22;9121;50.926;5.340;2023-12-04T08:55:52;4.60;1.00
17992;DHT22;9121;50.926;5.340;2023-12-04T08:58:21;4.60;1.00
17992;DHT22;9121;50.926;5.340;2023-12-04T09:00:48;4.60;1.00
17992;DHT22;9121;50.926;5.340;2023-12-04T09:03:14;4.60;1.00
17992;DHT22;9121;50.926;5.340;2023-12-04T09:05:42;4.60;1.00
17992;DHT22;9121;50.926;5.340;2023-12-04T09:08:09;4.70;1.00
17992;DHT22;9121;50.926;5.340;2023-12-04T09:10:36;4.70;1.00
17992;DHT22;9121;50.926;5.340;2023-12-04T09:13:03;4.60;1.00
17992;DHT22;9121;50.926;5.340;2023-12-04T09:15:31;4.60;1.00
17992;DHT22;9121;50.926;5.340;2023-12-04T09:17:58;4.60;1.00
17992;DHT22;9121;50.926;5.340;2023-12-04T09:20:25;4.70;1.00
17992;DHT22;9121;50.926;5.340;2023-12-04T09:22:52;4.70;1.00
17992;DHT22;9121;50.926;5.340;2023-12-04T09:25:19;4.60;1.00
17992;DHT22;9121;50.926;5.340;2023-12-04T09:27:46;4.70;1.00
17992;DHT22;9121;50.926;5.340;2023-12-04T09:30:13;4.70;1.00
17992;DHT22;9121;50.926;5.340;2023-12-04T09:32:41;4.80;1.00
17992;DHT22;9121;50.926;5.340;2023-12-04T09:35:10;4.70;1.00
17992;DHT22;9121;50.926;5.340;2023-12-04T09:37:37;4.70;1.00
17992;DHT22;9121;50.926;5.340;2023-12-04T09:40:05;4.70;1.00
17992;DHT22;9121;50.926;5.340;2023-12-04T09:42:34;4.60;1.00
17992;DHT22;9121;50.926;5.340;2023-12-04T09:45:01;4.60;1.00
17992;DHT22;9121;50.926;5.340;2023-12-04T09:47:29;4.60;1.00
17992;DHT22;9121;50.926;5.340;2023-12-04T09:49:58;4.60;1.00
17992;DHT22;9121;50.926;5.340;2023-12-04T09:52:27;4.60;1.00
17992;DHT22;9121;50.926;5.340;2023-12-04T09:54:54;4.50;1.00
17992;DHT22;9121;50.926;5.340;2023-12-04T09:57:22;4.50;77.90
17992;DHT22;9121;50.926;5.340;2023-12-04T09:59:51;4.60;85.30
17992;DHT22;9121;50.926;5.340;2023-12-04T10:02:19;4.60;32.70
17992;DHT22;9121;50.926;5.340;2023-12-04T10:04:47;4.60;99.90
17992;DHT22;9121;50.926;5.340;2023-12-04T10:07:15;4.60;99.90
17992;DHT22;9121;50.926;5.340;2023-12-04T10:09:42;4.60;99.90
17992;DHT22;9121;50.926;5.340;2023-12-04T10:12:09;4.40;99.90
17992;DHT22;9121;50.926;5.340;2023-12-04T10:14:37;4.40;99.90
17992;DHT22;9121;50.926;5.340;2023-12-04T10:17:14;4.40;99.90
17992;DHT22;9121;50.926;5.340;2023-12-04T10:19:41;4.40;99.90
17992;DHT22;9121;50.926;5.340;2023-12-04T10:22:08;4.40;99.90
17992;DHT22;9121;50.926;5.340;2023-12-04T10:24:38;4.40;99.90
17992;DHT22;9121;50.926;5.340;2023-12-04T10:27:06;4.40;99.90
17992;DHT22;9121;50.926;5.340;2023-12-04T10:29:42;4.30;99.90
17992;DHT22;9121;50.926;5.340;2023-12-04T10:32:09;4.40;1.00
17992;DHT22;9121;50.926;5.340;2023-12-04T10:34:37;4.30;1.00
17992;DHT22;9121;50.926;5.340;2023-12-04T10:37:05;4.30;1.00
17992;DHT22;9121;50.926;5.340;2023-12-04T10:39:33;4.20;1.00
17992;DHT22;9121;50.926;5.340;2023-12-04T10:42:23;4.10;1.00
17992;DHT22;9121;50.926;5.340;2023-12-04T10:44:59;4.00;1.00
17992;DHT22;9121;50.926;5.340;2023-12-04T10:47:27;3.90;1.00
17992;DHT22;9121;50.926;5.340;2023-12-04T10:49:55;3.90;1.00
17992;DHT22;9121;50.926;5.340;2023-12-04T10:52:22;3.90;1.00
17992;DHT22;9121;50.926;5.340;2023-12-04T10:54:49;3.90;1.00
17992;DHT22;9121;50.926;5.340;2023-12-04T10:57:24;3.80;1.00
17992;DHT22;9121;50.926;5.340;2023-12-04T10:59:56;3.70;1.00
17992;DHT22;9121;50.926;5.340;2023-12-04T11:02:26;3.70;1.00
17992;DHT22;9121;50.926;5.340;2023-12-04T11:05:07;3.70;1.00
17992;DHT22;9121;50.926;5.340;2023-12-04T11:07:40;3.70;1.00
17992;DHT22;9121;50.926;5.340;2023-12-04T11:10:08;3.70;1.00
17992;DHT22;9121;50.926;5.340;2023-12-04T11:12:40;3.60;1.00
17992;DHT22;9121;50.926;5.340;2023-12-04T11:15:13;3.60;1.00
17992;DHT22;9121;50.926;5.340;2023-12-04T11:17:43;3.70;1.00
17992;DHT22;9121;50.926;5.340;2023-12-04T11:20:18;3.70;1.00
17992;DHT22;9121;50.926;5.340;2023-12-04T11:22:46;3.70;1.00
17992;DHT22;9121;50.926;5.340;2023-12-04T11:25:14;3.60;1.00
17992;DHT22;9121;50.926;5.340;2023-12-04T11:27:42;3.60;1.00
17992;DHT22;9121;50.926;5.340;2023-12-04T11:30:11;3.80;1.00
17992;DHT22;9121;50.926;5.340;2023-12-04T11:32:45;3.90;1.00
17992;DHT22;9121;50.926;5.340;2023-12-04T11:35:14;4.00;1.00
17992;DHT22;9121;50.926;5.340;2023-12-04T11:37:43;3.90;1.00
17992;DHT22;9121;50.926;5.340;2023-12-04T11:40:11;3.90;1.00
17992;DHT22;9121;50.926;5.340;2023-12-04T11:42:39;4.00;1.00
17992;DHT22;9121;50.926;5.340;2023-12-04T11:45:06;4.20;1.00
17992;DHT22;9121;50.926;5.340;2023-12-04T11:50:28;4.20;1.00
17992;DHT22;9121;50.926;5.340;2023-12-04T11:52:55;4.20;1.00
17992;DHT22;9121;50.926;5.340;2023-12-04T11:55:25;4.10;1.00
17992;DHT22;9121;50.926;5.340;2023-12-04T11:57:54;4.20;1.00
17992;DHT22;9121;50.926;5.340;2023-12-04T12:00:23;4.20;1.00
17992;DHT22;9121;50.926;5.340;2023-12-04T12:03:05;4.30;1.00
17992;DHT22;9121;50.926;5.340;2023-12-04T12:05:36;4.40;1.00
17992;DHT22;9121;50.926;5.340;2023-12-04T12:08:05;4.40;1.00
17992;DHT22;9121;50.926;5.340;2023-12-04T12:10:33;4.40;1.00
17992;DHT22;9121;50.926;5.340;2023-12-04T12:13:00;4.40;1.00
17992;DHT22;9121;50.926;5.340;2023-12-04T12:15:28;4.50;1.00
17992;DHT22;9121;50.926;5.340;2023-12-04T12:17:55;4.50;1.00
17992;DHT22;9121;50.926;5.340;2023-12-04T12:20:22;4.40;1.00
17992;DHT22;9121;50.926;5.340;2023-12-04T12:22:52;4.30;1.00
17992;DHT22;9121;50.926;5.340;2023-12-04T12:25:19;4.20;1.00
17992;DHT22;9121;50.926;5.340;2023-12-04T12:27:46;4.10;1.00
17992;DHT22;9121;50.926;5.340;2023-12-04T12:30:13;4.10;1.00
17992;DHT22;9121;50.926;5.340;2023-12-04T12:32:40;4.20;1.00
17992;DHT22;9121;50.926;5.340;2023-12-04T12:35:08;4.20;1.00
17992;DHT22;9121;50.926;5.340;2023-12-04T12:37:35;4.30;1.00
17992;DHT22;9121;50.926;5.340;2023-12-04T12:40:06;4.20;1.00
17992;DHT22;9121;50.926;5.340;2023-12-04T12:42:36;4.30;1.00
17992;DHT22;9121;50.926;5.340;2023-12-04T12:45:04;4.20;1.00
17992;DHT22;9121;50.926;5.340;2023-12-04T12:47:31;4.20;1.00
17992;DHT22;9121;50.926;5.340;2023-12-04T12:50:00;4.20;1.00
17992;DHT22;9121;50.926;5.340;2023-12-04T12:52:28;4.20;1.00
17992;DHT22;9121;50.926;5.340;2023-12-04T12:54:55;4.30;1.00
17992;DHT22;9121;50.926;5.340;2023-12-04T12:57:24;4.30;1.00
17992;DHT22;9121;50.926;5.340;2023-12-04T12:59:52;4.30;1.00
17992;DHT22;9121;50.926;5.340;2023-12-04T13:02:20;4.40;1.00
17992;DHT22;9121;50.926;5.340;2023-12-04T13:04:47;4.40;1.00
17992;DHT22;9121;50.926;5.340;2023-12-04T13:07:14;4.30;1.00
17992;DHT22;9121;50.926;5.340;2023-12-04T13:09:41;4.30;1.00
17992;DHT22;9121;50.926;5.340;2023-12-04T13:12:09;4.40;1.00
17992;DHT22;9121;50.926;5.340;2023-12-04T13:14:38;4.40;1.00
17992;DHT22;9121;50.926;5.340;2023-12-04T13:17:05;4.40;1.00
17992;DHT22;9121;50.926;5.340;2023-12-04T13:19:34;4.40;1.00
17992;DHT22;9121;50.926;5.340;2023-12-04T13:22:02;4.40;1.00
17992;DHT22;9121;50.926;5.340;2023-12-04T13:24:29;4.40;1.00
17992;DHT22;9121;50.926;5.340;2023-12-04T13:26:56;4.40;1.00
17992;DHT22;9121;50.926;5.340;2023-12-04T13:29:23;4.40;1.00
17992;DHT22;9121;50.926;5.340;2023-12-04T13:31:52;4.50;1.00
17992;DHT22;9121;50.926;5.340;2023-12-04T13:34:19;4.50;1.00
17992;DHT22;9121;50.926;5.340;2023-12-04T13:36:46;4.60;1.10
17992;DHT22;9121;50.926;5.340;2023-12-04T13:39:13;4.60;1.00
17992;DHT22;9121;50.926;5.340;2023-12-04T13:41:45;4.60;1.00
17992;DHT22;9121;50.926;5.340;2023-12-04T13:44:44;4.50;1.00
17992;DHT22;9121;50.926;5.340;2023-12-04T13:47:13;4.50;6.20
17992;DHT22;9121;50.926;5.340;2023-12-04T13:49:41;4.50;6.40
17992;DHT22;9121;50.926;5.340;2023-12-04T13:52:11;4.50;16.20
17992;DHT22;9121;50.926;5.340;2023-12-04T13:54:38;4.40;26.40
17992;DHT22;9121;50.926;5.340;2023-12-04T13:57:12;4.40;39.10
17992;DHT22;9121;50.926;5.340;2023-12-04T13:59:46;4.40;42.90
17992;DHT22;9121;50.926;5.340;2023-12-04T14:02:15;4.40;45.40
17992;DHT22;9121;50.926;5.340;2023-12-04T14:04:42;4.30;47.40
17992;DHT22;9121;50.926;5.340;2023-12-04T14:07:09;4.40;46.40
17992;DHT22;9121;50.926;5.340;2023-12-04T14:09:37;4.40;54.80
17992;DHT22;9121;50.926;5.340;2023-12-04T14:12:06;4.30;62.10
17992;DHT22;9121;50.926;5.340;2023-12-04T14:14:33;4.30;69.70
17992;DHT22;9121;50.926;5.340;2023-12-04T14:17:00;4.30;72.50
17992;DHT22;9121;50.926;5.340;2023-12-04T14:19:30;4.30;75.80
17992;DHT22;9121;50.926;5.340;2023-12-04T14:21:57;4.30;75.80
17992;DHT22;9121;50.926;5.340;2023-12-04T14:24:24;4.30;82.60
17992;DHT22;9121;50.926;5.340;2023-12-04T14:26:51;4.30;89.70
17992;DHT22;9121;50.926;5.340;2023-12-04T14:29:19;4.30;90.50
17992;DHT22;9121;50.926;5.340;2023-12-04T14:31:46;4.30;93.70
17992;DHT22;9121;50.926;5.340;2023-12-04T14:34:13;4.30;95.20
17992;DHT22;9121;50.926;5.340;2023-12-04T14:36:41;4.20;97.50
17992;DHT22;9121;50.926;5.340;2023-12-04T14:39:08;4.20;98.30
17992;DHT22;9121;50.926;5.340;2023-12-04T14:41:36;4.30;99.70
17992;DHT22;9121;50.926;5.340;2023-12-04T14:44:03;4.30;99.90
17992;DHT22;9121;50.926;5.340;2023-12-04T14:46:30;4.30;99.90
17992;DHT22;9121;50.926;5.340;2023-12-04T14:48:57;4.30;99.40
17992;DHT22;9121;50.926;5.340;2023-12-04T14:51:24;4.30;99.90
17992;DHT22;9121;50.926;5.340;2023-12-04T14:53:53;4.30;99.90
17992;DHT22;9121;50.926;5.340;2023-12-04T14:56:36;4.40;97.70
17992;DHT22;9121;50.926;5.340;2023-12-04T14:59:17;4.40;99.90
17992;DHT22;9121;50.926;5.340;2023-12-04T15:02:10;4.50;99.90
17992;DHT22;9121;50.926;5.340;2023-12-04T15:05:29;4.50;99.90
17992;DHT22;9121;50.926;5.340;2023-12-04T15:08:24;4.50;99.90
17992;DHT22;9121;50.926;5.340;2023-12-04T15:11:07;4.40;99.90
17992;DHT22;9121;50.926;5.340;2023-12-04T15:14:11;4.30;99.90
17992;DHT22;9121;50.926;5.340;2023-12-04T15:16:56;4.30;99.90
17992;DHT22;9121;50.926;5.340;2023-12-04T15:19:39;4.20;99.90
17992;DHT22;9121;50.926;5.340;2023-12-04T15:22:22;4.30;99.90
17992;DHT22;9121;50.926;5.340;2023-12-04T15:24:49;4.20;99.90
17992;DHT22;9121;50.926;5.340;2023-12-04T15:27:17;4.20;99.90
17992;DHT22;9121;50.926;5.340;2023-12-04T15:29:44;4.20;99.90
17992;DHT22;9121;50.926;5.340;2023-12-04T15:32:10;4.20;99.90
17992;DHT22;9121;50.926;5.340;2023-12-04T15:34:37;4.30;99.90
17992;DHT22;9121;50.926;5.340;2023-12-04T15:37:03;4.20;99.90
17992;DHT22;9121;50.926;5.340;2023-12-04T15:39:30;4.20;99.90
17992;DHT22;9121;50.926;5.340;2023-12-04T15:41:57;4.20;99.90
17992;DHT22;9121;50.926;5.340;2023-12-04T15:44:25;4.20;99.90
17992;DHT22;9121;50.926;5.340;2023-12-04T15:46:51;4.10;99.90
17992;DHT22;9121;50.926;5.340;2023-12-04T15:49:18;4.10;99.90
17992;DHT22;9121;50.926;5.340;2023-12-04T15:51:44;4.20;99.90
17992;DHT22;9121;50.926;5.340;2023-12-04T15:54:11;4.20;99.90
17992;DHT22;9121;50.926;5.340;2023-12-04T15:56:37;4.30;99.90
17992;DHT22;9121;50.926;5.340;2023-12-04T15:59:04;4.20;99.90
17992;DHT22;9121;50.926;5.340;2023-12-04T16:01:31;4.20;99.90
17992;DHT22;9121;50.926;5.340;2023-12-04T16:03:58;4.20;99.90
17992;DHT22;9121;50.926;5.340;2023-12-04T16:06:24;4.20;99.90
17992;DHT22;9121;50.926;5.340;2023-12-04T16:08:51;4.30;99.90
17992;DHT22;9121;50.926;5.340;2023-12-04T16:11:22;4.30;99.90
17992;DHT22;9121;50.926;5.340;2023-12-04T16:13:49;4.30;99.90
17992;DHT22;9121;50.926;5.340;2023-12-04T16:16:16;4.40;99.90
17992;DHT22;9121;50.926;5.340;2023-12-04T16:18:44;4.30;99.90